createdAt,value
2023-01-15T00:02:07.079Z,-4.53
2023-01-15T00:04:33.854Z,-4.11
2023-01-15T00:07:00.347Z,-4.36
2023-01-15T00:09:26.885Z,-4.36
2023-01-15T00:11:53.411Z,-4.11
2023-01-15T00:14:19.905Z,-4.33
2023-01-15T00:16:46.524Z,-4.06
2023-01-15T00:19:13.089Z,-4.47
2023-01-15T00:21:39.669Z,-4.30
2023-01-15T00:24:24.951Z,-4.02
2023-01-15T00:27:10.150Z,-4.02
2023-01-15T00:29:36.703Z,-4.13
2023-01-15T00:32:06.605Z,-4.00
2023-01-15T00:34:33.734Z,-4.10
2023-01-15T00:37:01.312Z,-3.95
2023-01-15T00:39:28.004Z,-4.04
2023-01-15T00:41:55.468Z,-4.08
2023-01-15T00:44:22.619Z,-3.98
2023-01-15T00:46:49.213Z,-4.07
2023-01-15T00:49:15.904Z,-4.19
2023-01-15T00:51:42.489Z,-4.00
2023-01-15T00:54:09.058Z,-4.14
2023-01-15T00:56:36.384Z,-4.25
2023-01-15T00:59:04.536Z,-4.22
2023-01-15T01:01:31.313Z,-4.34
2023-01-15T01:03:58.008Z,-4.26
2023-01-15T01:06:24.709Z,-4.28
2023-01-15T01:08:51.363Z,-4.14
2023-01-15T01:11:21.342Z,-4.16
2023-01-15T01:13:49.086Z,-4.15
2023-01-15T01:16:38.672Z,-4.05
2023-01-15T01:19:08.803Z,-4.21
2023-01-15T01:21:37.912Z,-3.99
2023-01-15T01:24:04.860Z,-4.13
2023-01-15T01:26:31.480Z,-4.19
2023-01-15T01:28:58.367Z,-3.99
2023-01-15T01:31:25.005Z,-4.30
2023-01-15T01:33:54.121Z,-4.13
2023-01-15T01:36:25.652Z,-4.20
2023-01-15T01:38:52.397Z,-4.02
2023-01-15T01:41:39.340Z,-4.13
2023-01-15T01:44:11.441Z,-4.04
2023-01-15T01:46:37.994Z,-4.01
2023-01-15T01:49:09.514Z,-4.13
2023-01-15T01:51:40.903Z,-4.17
2023-01-15T01:54:09.639Z,-4.09
2023-01-15T01:56:36.717Z,-4.23
2023-01-15T01:59:06.795Z,-4.16
2023-01-15T02:01:33.486Z,-4.51
2023-01-15T02:04:00.470Z,-4.46
2023-01-15T02:06:29.128Z,-4.13
2023-01-15T02:08:56.051Z,-4.38
2023-01-15T02:11:24.653Z,-4.33
2023-01-15T02:14:02.967Z,-4.33
2023-01-15T02:16:29.614Z,-4.21
2023-01-15T02:19:21.213Z,-4.08
2023-01-15T02:22:03.058Z,-4.23
2023-01-15T02:24:42.257Z,-4.35
2023-01-15T02:27:21.418Z,-4.56
2023-01-15T12:38:12.742Z,-142.10
2023-01-15T12:40:40.513Z,-142.10
2023-01-15T12:43:35.658Z,-142.10
2023-01-15T12:46:05.966Z,-142.10
2023-01-15T12:48:47.139Z,-142.10
2023-01-15T12:51:24.515Z,-142.10
2023-01-15T12:53:55.784Z,-142.10
2023-01-15T12:56:29.934Z,-142.10
2023-01-15T12:59:11.764Z,-142.10
2023-01-15T13:02:21.258Z,-142.10
2023-01-15T13:04:54.736Z,-142.10
2023-01-15T13:07:24.233Z,-142.10
2023-01-15T13:10:13.195Z,-142.10
2023-01-15T13:12:40.101Z,-142.10
2023-01-15T13:15:07.372Z,-142.10
2023-01-15T13:18:17.167Z,-142.10
2023-01-15T13:20:47.266Z,-142.10
2023-01-15T13:23:50.908Z,-142.10
2023-01-15T13:26:47.904Z,-142.10
2023-01-15T13:29:29.805Z,-142.10
2023-01-15T13:32:12.821Z,-142.10
2023-01-15T13:34:47.351Z,-142.10
2023-01-15T13:37:35.257Z,-142.10
2023-01-15T13:40:17.494Z,-142.10
2023-01-15T13:42:50.342Z,-142.10
2023-01-15T13:45:17.029Z,-142.10
2023-01-15T13:47:50.817Z,-142.10
2023-01-15T13:50:23.300Z,-142.10
2023-01-15T13:52:49.853Z,-142.10
2023-01-15T13:55:16.335Z,-142.10
2023-01-15T13:57:43.683Z,-142.10
2023-01-15T14:00:29.230Z,-142.10
2023-01-15T14:03:02.797Z,-142.10
2023-01-15T14:05:36.622Z,-142.10
2023-01-15T14:08:16.519Z,-142.10
2023-01-15T14:10:43.182Z,-142.10
2023-01-15T14:13:45.536Z,-142.10
2023-01-15T14:46:29.038Z,-142.10
2023-01-15T14:48:55.664Z,-142.10
2023-01-15T14:51:32.578Z,-142.10
2023-01-15T14:54:20.048Z,-142.10
2023-01-15T14:56:53.472Z,-142.10
2023-01-15T14:59:49.163Z,-142.10
2023-01-15T15:02:23.272Z,-142.10
2023-01-15T15:04:54.086Z,-142.10
2023-01-15T15:07:24.529Z,-142.10
2023-01-15T23:26:43.523Z,-142.10
2023-01-15T23:29:10.220Z,-142.10
2023-01-15T23:31:36.942Z,-142.10
2023-01-15T23:34:03.761Z,-142.10
2023-01-15T23:36:30.419Z,-142.10
2023-01-15T23:38:57.198Z,-142.10
2023-01-15T23:41:42.817Z,-142.10
2023-01-15T23:44:38.865Z,-142.10
2023-01-15T23:47:07.527Z,-142.10
2023-01-15T23:49:34.378Z,-142.10
2023-01-15T23:52:01.370Z,-142.10
2023-01-15T23:54:30.192Z,-142.10
2023-01-15T23:56:58.879Z,-142.10
2023-01-15T23:59:25.896Z,-142.10
